Aviation Digital Data Service (ADDS)

Output produced by METARs form (1347 UTC 21 August 2019)
found at http://www.aviationweather.gov/metar/data/
 
TAF DXXX 211100Z 2112/2218 20012KT 9999 SCT013 
     BECMG 2200/2202 26005KT 
     BECMG 2208/2210 20012KT